Time;durP1;ratioP1;P1;durP2;ratioP2;P2;SDS_P1;SDS_P2;PMS_P1;PMS_P2;Temp;Humidity;BMP_temperature;BMP_pressure;BME280_temperature;BME280_humidity;BME280_pressure;Samples;Min_cycle;Max_cycle;Signal;HPM_P1;HPM_P2
2022/12/17 13:06:03;;;;;;;51.45;19.77;;;-0.80;99.90;;;;;;4124672;28;20050;-65
2022/12/17 13:08:06;;;;;;;48.92;20.13;;;-0.70;99.90;;;;;;4139349;28;20034;-64
2022/12/17 13:10:23;;;;;;;47.45;19.65;;;-0.80;99.90;;;;;;4134636;28;20046;-65
2022/12/17 13:12:44;;;;;;;45.90;19.33;;;-0.80;99.90;;;;;;4134596;28;20053;-64
2022/12/17 13:14:57;;;;;;;50.95;21.13;;;-0.80;99.90;;;;;;4142958;28;20119;-65
2022/12/17 13:17:20;;;;;;;53.53;21.15;;;-0.80;99.90;;;;;;4155473;28;20030;-64
2022/12/17 13:19:32;;;;;;;50.22;20.90;;;-0.80;99.90;;;;;;4142303;28;20512;-65
2022/12/17 13:21:32;;;;;;;59.70;24.03;;;-0.80;99.90;;;;;;4142473;28;20080;-65
2022/12/17 13:23:35;;;;;;;55.80;24.45;;;-0.80;99.90;;;;;;4138471;28;20045;-65
2022/12/17 13:25:36;;;;;;;66.18;23.65;;;-0.90;99.90;;;;;;4140828;28;20392;-64
2022/12/17 13:27:39;;;;;;;59.30;23.50;;;-0.90;99.90;;;;;;4149313;28;20064;-65
2022/12/17 13:29:39;;;;;;;62.22;25.40;;;-0.90;99.90;;;;;;4149413;28;20109;-65
2022/12/17 13:31:44;;;;;;;56.83;24.15;;;-0.90;99.90;;;;;;4142411;28;20088;-64
2022/12/17 13:33:49;;;;;;;61.97;24.35;;;-0.90;99.90;;;;;;4154983;28;20052;-64
2022/12/17 13:36:11;;;;;;;59.45;25.02;;;-0.90;99.90;;;;;;4145137;28;20034;-65
2022/12/17 13:38:26;;;;;;;60.22;25.65;;;-0.90;99.90;;;;;;4150728;28;20033;-64
2022/12/17 13:40:41;;;;;;;62.70;26.27;;;-1.00;99.90;;;;;;4155821;28;20053;-64
2022/12/17 13:42:44;;;;;;;59.22;24.92;;;-1.00;99.90;;;;;;4131395;28;20113;-64
2022/12/17 13:44:46;;;;;;;63.83;27.23;;;-1.00;99.90;;;;;;4130073;28;20092;-65
2022/12/17 13:46:49;;;;;;;69.18;25.15;;;-1.00;99.90;;;;;;4134575;28;20038;-64
2022/12/17 13:48:57;;;;;;;59.88;24.48;;;-1.00;99.90;;;;;;4144014;28;20030;-65
2022/12/17 13:51:00;;;;;;;64.75;26.58;;;-1.10;99.90;;;;;;4129602;28;20038;-64
2022/12/17 13:53:11;;;;;;;60.13;23.55;;;-1.20;99.90;;;;;;4136434;28;20029;-65
2022/12/17 13:55:27;;;;;;;53.50;24.33;;;-1.20;99.90;;;;;;4150593;28;20490;-64
2022/12/17 13:57:29;;;;;;;63.90;26.83;;;-1.20;99.90;;;;;;4161773;28;20445;-64
2022/12/17 13:59:29;;;;;;;59.97;26.02;;;-1.20;99.90;;;;;;4146538;28;20091;-64
2022/12/17 14:01:30;;;;;;;54.33;25.90;;;-1.20;99.90;;;;;;4143598;28;20472;-65
2022/12/17 14:03:31;;;;;;;57.75;25.25;;;-1.20;99.90;;;;;;4141331;28;20065;-66
2022/12/17 14:05:36;;;;;;;61.33;25.90;;;-1.20;99.90;;;;;;4141768;28;20065;-65
2022/12/17 14:07:38;;;;;;;61.55;28.00;;;-1.20;99.90;;;;;;4148335;28;20124;-65
2022/12/17 14:09:42;;;;;;;66.30;27.67;;;-1.20;99.90;;;;;;4146964;28;20041;-65
2022/12/17 14:14:03;;;;;;;57.80;25.23;;;-1.40;99.90;;;;;;4137099;28;20057;-65
2022/12/17 14:16:04;;;;;;;63.70;26.23;;;-1.40;99.90;;;;;;4143172;28;20068;-64
2022/12/17 14:18:04;;;;;;;56.35;25.23;;;-1.30;99.90;;;;;;4134244;28;20042;-64
2022/12/17 14:20:05;;;;;;;59.95;26.98;;;-1.30;99.90;;;;;;4144053;28;20481;-65
2022/12/17 14:22:07;;;;;;;59.10;26.30;;;-1.30;99.90;;;;;;4142642;28;20048;-64
2022/12/17 14:24:12;;;;;;;63.60;27.85;;;-1.40;99.90;;;;;;4138189;28;20473;-64
2022/12/17 14:26:13;;;;;;;56.42;26.00;;;-1.30;99.90;;;;;;4149039;28;20121;-64
2022/12/17 14:28:34;;;;;;;51.97;25.63;;;-1.30;99.90;;;;;;4146806;28;20037;-64
2022/12/17 14:30:41;;;;;;;60.22;26.92;;;-1.30;99.90;;;;;;4119084;28;20034;-64
2022/12/17 14:32:42;;;;;;;64.50;28.23;;;-1.30;99.90;;;;;;4140724;28;20033;-64
2022/12/17 14:34:43;;;;;;;54.97;24.55;;;-1.40;99.90;;;;;;4141994;28;20038;-64
2022/12/17 14:36:45;;;;;;;61.05;26.48;;;-1.30;99.90;;;;;;4146354;28;20479;-64
2022/12/17 14:39:37;;;;;;;48.25;23.42;;;-1.30;99.90;;;;;;4135417;28;20548;-64
2022/12/17 14:44:26;;;;;;;59.72;26.45;;;-1.30;99.90;;;;;;4102671;28;20057;-64
2022/12/17 14:46:29;;;;;;;55.83;25.70;;;-1.30;99.90;;;;;;4129077;28;20041;-64
2022/12/17 14:48:59;;;;;;;57.60;25.30;;;-1.30;99.90;;;;;;4128533;28;20042;-65
2022/12/17 14:50:54;;;;;;;68.88;27.73;;;-1.40;99.90;;;;;;4141244;28;20061;-64
2022/12/17 14:52:57;;;;;;;58.83;25.17;;;-1.40;99.90;;;;;;4128697;28;20150;-65
2022/12/17 14:54:57;;;;;;;;;;;-1.40;99.90;;;;;;4134465;28;20053;-64
2022/12/17 14:56:58;;;;;;;55.55;25.20;;;-1.50;99.90;;;;;;4138469;28;20311;-65
2022/12/17 14:59:01;;;;;;;48.83;23.15;;;-1.50;99.90;;;;;;4153509;28;20038;-64
2022/12/17 15:01:11;;;;;;;54.50;24.65;;;-1.50;99.90;;;;;;4131339;28;20113;-64
2022/12/17 15:03:19;;;;;;;53.72;25.13;;;-1.40;99.90;;;;;;4145073;28;20080;-64
2022/12/17 15:05:19;;;;;;;56.33;26.92;;;-1.40;99.90;;;;;;4128762;28;20359;-64
2022/12/17 15:07:26;;;;;;;52.25;24.95;;;-1.40;99.90;;;;;;4146342;28;20076;-64
2022/12/17 15:09:27;;;;;;;57.35;25.63;;;-1.30;99.90;;;;;;4143040;28;20380;-64
2022/12/17 15:11:27;;;;;;;59.72;28.02;;;-1.30;99.90;;;;;;4146058;28;20048;-64
2022/12/17 15:13:28;;;;;;;51.35;24.48;;;-1.30;99.90;;;;;;4145994;28;20388;-64
2022/12/17 15:15:29;;;;;;;52.22;24.42;;;-1.30;99.90;;;;;;4142077;28;20038;-63
2022/12/17 15:17:29;;;;;;;52.58;25.98;;;-1.30;99.90;;;;;;4143121;28;20475;-63
2022/12/17 15:19:30;;;;;;;56.35;26.38;;;-1.20;99.90;;;;;;4147087;28;20044;-63
2022/12/17 15:21:30;;;;;;;54.45;24.52;;;-1.20;99.90;;;;;;4142254;28;20060;-63
2022/12/17 15:23:32;;;;;;;51.08;25.08;;;-1.20;99.90;;;;;;4146956;28;20038;-63
2022/12/17 15:25:32;;;;;;;47.40;23.42;;;-1.20;99.90;;;;;;4143161;28;20049;-63
2022/12/17 15:27:33;;;;;;;45.05;22.38;;;-1.30;99.90;;;;;;4146048;28;20042;-64
2022/12/17 15:29:34;;;;;;;48.38;22.95;;;-1.30;99.90;;;;;;4146712;28;20113;-64
2022/12/17 15:31:34;;;;;;;43.85;21.98;;;-1.40;99.90;;;;;;4144703;28;20041;-63
2022/12/17 15:33:35;;;;;;;47.00;22.48;;;-1.40;99.90;;;;;;4142929;28;20038;-64
2022/12/17 15:35:36;;;;;;;42.50;22.35;;;-1.40;99.90;;;;;;4144276;28;20030;-62
2022/12/17 15:37:37;;;;;;;46.70;24.38;;;-1.40;99.90;;;;;;4144197;28;20124;-62
2022/12/17 15:39:37;;;;;;;45.75;23.27;;;-1.40;99.90;;;;;;4145876;28;20465;-62
2022/12/17 15:43:57;;;;;;;55.10;24.08;;;-1.40;99.90;;;;;;4144659;28;20045;-62
2022/12/17 15:46:00;;;;;;;45.38;23.05;;;-1.40;99.90;;;;;;4143163;28;20042;-62
2022/12/17 15:48:01;;;;;;;46.22;23.45;;;-1.40;99.90;;;;;;4144580;28;20086;-62
2022/12/17 15:50:02;;;;;;;47.20;23.42;;;-1.40;99.90;;;;;;4146196;28;20056;-62
2022/12/17 15:52:03;;;;;;;49.38;24.23;;;-1.40;99.90;;;;;;4143760;28;20038;-62
2022/12/17 15:54:04;;;;;;;53.25;24.90;;;-1.30;99.90;;;;;;4145102;28;20038;-62
2022/12/17 15:56:05;;;;;;;56.42;28.35;;;-1.30;99.90;;;;;;4139166;28;20034;-62
2022/12/17 15:58:06;;;;;;;55.78;26.73;;;-1.40;99.90;;;;;;4141609;28;20041;-62
2022/12/17 16:00:08;;;;;;;51.50;25.70;;;-1.30;99.90;;;;;;4130176;28;20359;-62
2022/12/17 16:02:09;;;;;;;50.85;24.55;;;-1.30;99.90;;;;;;4140387;28;20038;-62
2022/12/17 16:04:10;;;;;;;50.70;24.33;;;-1.30;99.90;;;;;;4134541;28;20122;-62
2022/12/17 16:06:11;;;;;;;53.60;25.80;;;-1.20;99.90;;;;;;4136207;28;20031;-61
2022/12/17 16:08:11;;;;;;;54.03;27.10;;;-1.20;99.90;;;;;;4144891;28;20045;-64
2022/12/17 16:10:13;;;;;;;61.90;29.83;;;-1.10;99.90;;;;;;4143111;28;20433;-62
2022/12/17 16:12:13;;;;;;;63.83;30.40;;;-1.10;99.90;;;;;;4145656;28;20046;-61
2022/12/17 16:14:14;;;;;;;63.92;30.15;;;-1.10;99.90;;;;;;4142915;28;20595;-62
2022/12/17 16:16:14;;;;;;;60.33;29.52;;;-1.20;99.90;;;;;;4141907;28;20050;-62
2022/12/17 16:18:16;;;;;;;69.30;32.63;;;-1.20;99.90;;;;;;4145328;28;20038;-62
2022/12/17 16:20:17;;;;;;;64.60;31.33;;;-1.10;99.90;;;;;;4144849;28;20077;-62
2022/12/17 16:22:17;;;;;;;56.17;29.58;;;-1.10;99.90;;;;;;4145765;28;20273;-61
2022/12/17 16:24:18;;;;;;;59.58;29.10;;;-1.10;99.90;;;;;;4144180;28;20057;-62
2022/12/17 16:26:19;;;;;;;56.00;28.80;;;-1.10;99.90;;;;;;4141498;28;20042;-61
2022/12/17 16:28:19;;;;;;;58.03;30.00;;;-1.10;99.90;;;;;;4144331;28;20042;-61
2022/12/17 16:30:20;;;;;;;65.13;31.15;;;-1.10;99.90;;;;;;4134903;28;20089;-62
2022/12/17 16:32:20;;;;;;;61.63;30.95;;;-1.00;99.90;;;;;;4135216;28;20117;-62
2022/12/17 16:34:21;;;;;;;63.75;31.25;;;-1.00;99.90;;;;;;4134271;28;20047;-62
2022/12/17 16:36:22;;;;;;;62.60;31.52;;;-1.00;99.90;;;;;;4134644;28;20053;-62
2022/12/17 16:38:22;;;;;;;61.63;31.40;;;-1.00;99.90;;;;;;4137537;28;20034;-63
2022/12/17 16:40:23;;;;;;;66.38;34.25;;;-0.90;99.90;;;;;;4143313;28;20117;-62
2022/12/17 16:42:23;;;;;;;65.40;33.47;;;-0.90;99.90;;;;;;4145413;28;20038;-62
2022/12/17 16:44:24;;;;;;;61.97;30.77;;;-1.00;99.90;;;;;;4144272;28;20033;-63
2022/12/17 16:46:27;;;;;;;56.63;29.75;;;-0.90;99.90;;;;;;4144064;28;20146;-62
2022/12/17 16:48:34;;;;;;;58.47;30.67;;;-0.90;99.90;;;;;;4145424;28;20034;-62
2022/12/17 16:50:35;;;;;;;54.42;28.60;;;-0.90;99.90;;;;;;4143322;28;20039;-62
2022/12/17 16:52:35;;;;;;;54.30;30.15;;;-0.90;99.90;;;;;;4146408;28;20121;-63
2022/12/17 16:54:36;;;;;;;52.53;27.10;;;-0.90;99.90;;;;;;4145557;28;20049;-62
2022/12/17 16:56:36;;;;;;;48.00;25.40;;;-0.90;99.90;;;;;;4143563;28;20040;-62
2022/12/17 16:58:37;;;;;;;48.85;24.63;;;-0.90;99.90;;;;;;4146042;28;20095;-62
2022/12/17 17:00:37;;;;;;;52.05;27.08;;;-0.90;99.90;;;;;;4143402;28;20508;-62
2022/12/17 17:02:38;;;;;;;51.38;25.42;;;-0.90;99.90;;;;;;4147109;28;20085;-62
2022/12/17 17:04:39;;;;;;;48.53;24.67;;;-0.90;99.90;;;;;;4145082;28;20057;-63
2022/12/17 17:06:48;;;;;;;52.00;27.08;;;-0.90;99.90;;;;;;4141141;28;20050;-63
2022/12/17 17:08:49;;;;;;;55.53;27.55;;;-0.90;99.90;;;;;;4144281;28;20030;-62
2022/12/17 17:10:50;;;;;;;62.50;30.52;;;-1.00;99.90;;;;;;4144067;28;20515;-62
2022/12/17 17:12:51;;;;;;;63.08;30.42;;;-1.00;99.90;;;;;;4141359;28;20034;-62
2022/12/17 17:14:52;;;;;;;60.30;30.27;;;-1.00;99.90;;;;;;4137432;28;20035;-62
2022/12/17 17:16:53;;;;;;;58.50;28.63;;;-1.00;99.90;;;;;;4126701;28;20595;-62
2022/12/17 17:18:53;;;;;;;61.83;31.35;;;-1.10;99.90;;;;;;4135814;28;20037;-62
2022/12/17 17:21:10;;;;;;;63.55;30.60;;;-1.20;99.90;;;;;;4143912;28;20484;-64
2022/12/17 17:23:11;;;;;;;56.47;29.13;;;-1.20;99.90;;;;;;4140344;28;20505;-62
2022/12/17 17:25:11;;;;;;;59.97;29.50;;;-1.30;99.90;;;;;;4140061;28;20042;-62
2022/12/17 17:27:12;;;;;;;55.65;29.10;;;-1.30;99.90;;;;;;4141309;28;20046;-62
2022/12/17 17:29:13;;;;;;;58.13;30.83;;;-1.30;99.90;;;;;;4141847;28;20032;-62
2022/12/17 17:31:14;;;;;;;58.22;29.75;;;-1.30;99.90;;;;;;4145989;28;21543;-62
2022/12/17 17:33:15;;;;;;;61.50;31.00;;;-1.30;99.90;;;;;;4145504;28;20025;-62
2022/12/17 17:35:15;;;;;;;59.25;29.75;;;-1.30;99.90;;;;;;4142848;28;20052;-62
2022/12/17 17:37:16;;;;;;;63.60;29.30;;;-1.30;99.90;;;;;;4142501;28;20029;-62
2022/12/17 17:39:17;;;;;;;55.63;29.05;;;-1.30;99.90;;;;;;4142738;28;20042;-62
2022/12/17 17:41:19;;;;;;;56.20;28.10;;;-1.30;99.90;;;;;;4141063;28;20040;-62
2022/12/17 17:43:20;;;;;;;60.25;30.50;;;-1.30;99.90;;;;;;4140668;28;20066;-62
2022/12/17 17:45:21;;;;;;;60.03;29.77;;;-1.30;99.90;;;;;;4149411;28;20041;-62
2022/12/17 17:47:21;;;;;;;59.95;29.17;;;-1.30;99.90;;;;;;4137409;28;20061;-62
2022/12/17 17:49:22;;;;;;;64.55;30.10;;;-1.30;99.90;;;;;;4144937;28;20041;-62
2022/12/17 17:51:28;;;;;;;62.08;31.45;;;-1.30;99.90;;;;;;4144548;28;20057;-62
2022/12/17 17:53:29;;;;;;;66.53;32.63;;;-1.30;99.90;;;;;;4143939;28;20033;-63
2022/12/17 17:55:33;;;;;;;66.13;32.45;;;-1.30;99.90;;;;;;4142455;28;20159;-63
2022/12/17 17:57:34;;;;;;;63.20;32.28;;;-1.30;99.90;;;;;;4140896;28;20436;-62
2022/12/17 17:59:34;;;;;;;66.30;32.80;;;-1.30;99.90;;;;;;4138386;28;20041;-63
2022/12/17 18:01:38;;;;;;;74.10;34.22;;;-1.40;99.90;;;;;;4137388;28;20107;-63
2022/12/17 18:03:39;;;;;;;67.18;33.22;;;-1.30;99.90;;;;;;4144342;28;20517;-63
2022/12/17 18:05:42;;;;;;;72.55;36.30;;;-1.40;99.90;;;;;;4141519;28;20041;-62
2022/12/17 18:07:43;;;;;;;75.10;35.85;;;-1.40;99.90;;;;;;4141097;28;20495;-62
2022/12/17 18:09:43;;;;;;;68.03;34.70;;;-1.40;99.90;;;;;;4142380;28;20042;-63
2022/12/17 18:11:44;;;;;;;67.35;33.15;;;-1.40;99.90;;;;;;4141821;28;20080;-62
2022/12/17 18:13:54;;;;;;;63.50;30.77;;;-1.40;99.90;;;;;;4146904;28;20038;-62
2022/12/17 18:16:00;;;;;;;68.45;34.08;;;-1.50;99.90;;;;;;4141466;28;20137;-62
2022/12/17 18:18:00;;;;;;;67.28;32.67;;;-1.50;99.90;;;;;;4141563;28;20038;-63
2022/12/17 18:20:01;;;;;;;62.97;30.77;;;-1.60;99.90;;;;;;4141175;28;20044;-63
2022/12/17 18:22:02;;;;;;;65.00;31.83;;;-1.60;99.90;;;;;;4137542;28;20052;-63
2022/12/17 18:24:14;;;;;;;64.70;30.48;;;-1.60;99.90;;;;;;4142762;28;20068;-62
2022/12/17 18:26:21;;;;;;;63.22;30.52;;;-1.60;99.90;;;;;;4140010;28;20032;-63
2022/12/17 18:28:21;;;;;;;63.78;30.80;;;-1.60;99.90;;;;;;4140903;28;20049;-62
2022/12/17 18:30:22;;;;;;;65.95;30.38;;;-1.60;99.90;;;;;;4139401;28;20042;-62
2022/12/17 18:32:22;;;;;;;68.30;32.42;;;-1.60;99.90;;;;;;4142174;28;20026;-63
2022/12/17 18:34:26;;;;;;;73.20;32.90;;;-1.70;99.90;;;;;;4141323;28;20034;-62
2022/12/17 18:36:29;;;;;;;70.65;33.78;;;-1.70;99.90;;;;;;4139471;28;20026;-62
2022/12/17 18:38:30;;;;;;;68.25;32.13;;;-1.80;99.90;;;;;;4142660;28;20034;-63
2022/12/17 18:40:30;;;;;;;62.53;30.70;;;-1.90;99.90;;;;;;4141635;28;20129;-63
2022/12/17 18:44:50;;;;;;;65.05;29.85;;;-2.00;99.90;;;;;;4143791;28;20076;-62
2022/12/17 18:46:51;;;;;;;63.42;30.08;;;-2.10;99.90;;;;;;4141607;28;20038;-63
2022/12/17 18:48:52;;;;;;;60.80;29.95;;;-2.10;99.90;;;;;;4145568;28;20030;-63
2022/12/17 18:50:53;;;;;;;64.70;31.50;;;-2.10;99.90;;;;;;4141891;28;20107;-62
2022/12/17 18:52:53;;;;;;;63.85;31.65;;;-2.10;99.90;;;;;;4144360;28;20042;-62
2022/12/17 18:54:54;;;;;;;61.65;29.40;;;-2.10;99.90;;;;;;4142682;28;20046;-63
2022/12/17 18:56:56;;;;;;;65.55;29.80;;;-2.10;99.90;;;;;;4142070;28;20056;-62
2022/12/17 18:58:57;;;;;;;59.83;29.17;;;-2.10;99.90;;;;;;4138708;28;20030;-62
2022/12/17 19:00:57;;;;;;;61.20;30.08;;;-2.10;99.90;;;;;;4142897;28;20030;-62
2022/12/17 19:02:58;;;;;;;70.70;33.95;;;-2.10;99.90;;;;;;4144238;28;20029;-62
2022/12/17 19:04:59;;;;;;;68.35;30.50;;;-2.10;99.90;;;;;;4143533;28;20037;-63
2022/12/17 19:06:59;;;;;;;69.85;31.52;;;-2.10;99.90;;;;;;4145224;28;20022;-62
2022/12/17 19:09:00;;;;;;;61.05;29.85;;;-2.10;99.90;;;;;;4143548;28;20034;-63
2022/12/17 19:11:06;;;;;;;59.03;29.92;;;-2.10;99.90;;;;;;4142562;28;20038;-64
2022/12/17 19:13:06;;;;;;;64.43;30.17;;;-2.10;99.90;;;;;;4142681;28;20376;-63
2022/12/17 19:15:07;;;;;;;54.55;27.50;;;-2.10;99.90;;;;;;4143479;28;20076;-63
2022/12/17 19:17:08;;;;;;;63.00;29.42;;;-2.10;99.90;;;;;;4143171;28;20064;-63
2022/12/17 19:19:11;;;;;;;57.70;28.80;;;-2.20;99.90;;;;;;4143714;28;21629;-63
2022/12/17 19:21:15;;;;;;;61.72;29.40;;;-2.20;99.90;;;;;;4141662;28;20029;-63
2022/12/17 19:23:16;;;;;;;63.03;29.15;;;-2.20;99.90;;;;;;4142897;28;20096;-62
2022/12/17 19:25:16;;;;;;;67.57;31.00;;;-2.20;99.90;;;;;;4140716;28;20038;-63
2022/12/17 19:27:17;;;;;;;59.83;30.08;;;-2.20;99.90;;;;;;4142645;28;20057;-63
2022/12/17 19:29:19;;;;;;;65.47;28.85;;;-2.20;99.90;;;;;;4141615;28;20034;-62
2022/12/17 19:31:21;;;;;;;62.90;30.95;;;-2.20;99.90;;;;;;4142698;28;20026;-63
2022/12/17 19:33:22;;;;;;;;;;;-2.20;99.90;;;;;;4136928;28;20038;-62
2022/12/17 19:35:22;;;;;;;64.43;30.05;;;-2.20;99.90;;;;;;4140485;28;20470;-62
2022/12/17 19:37:23;;;;;;;65.65;30.42;;;-2.20;99.90;;;;;;4133217;28;20057;-62
2022/12/17 19:39:23;;;;;;;60.45;28.73;;;-2.20;99.90;;;;;;4137701;28;20034;-62
2022/12/17 19:41:26;;;;;;;58.67;27.77;;;-2.20;99.90;;;;;;4138612;28;20039;-62
2022/12/17 19:43:26;;;;;;;;;;;-2.20;99.90;;;;;;4141425;28;20033;-63
2022/12/17 19:45:27;;;;;;;65.28;28.73;;;-2.20;99.90;;;;;;4139588;28;19914;-63
2022/12/17 19:47:29;;;;;;;61.58;29.98;;;-2.20;99.90;;;;;;4141691;28;20042;-62
2022/12/17 19:49:31;;;;;;;61.67;28.63;;;-2.20;99.90;;;;;;4141286;28;20041;-63
2022/12/17 19:51:32;;;;;;;62.50;28.65;;;-2.30;99.90;;;;;;4143039;28;20041;-63
2022/12/17 19:53:34;;;;;;;62.33;28.80;;;-2.30;99.90;;;;;;4144639;28;20030;-62
2022/12/17 19:55:35;;;;;;;66.60;30.00;;;-2.30;99.90;;;;;;4144056;28;20533;-63
2022/12/17 19:57:36;;;;;;;74.00;32.10;;;-2.30;99.90;;;;;;4144688;28;20084;-63
2022/12/17 19:59:36;;;;;;;64.93;31.48;;;-2.30;99.90;;;;;;4143580;28;20041;-63
2022/12/17 20:01:45;;;;;;;68.65;31.15;;;-2.40;99.90;;;;;;4144865;28;20034;-63
2022/12/17 20:03:46;;;;;;;66.13;30.90;;;-2.40;99.90;;;;;;4147011;28;20440;-63
2022/12/17 20:05:47;;;;;;;61.28;31.02;;;-2.40;99.90;;;;;;4146000;28;20030;-63
2022/12/17 20:07:47;;;;;;;65.22;30.38;;;-2.40;99.90;;;;;;4146140;28;20058;-63
2022/12/17 20:09:48;;;;;;;65.40;31.33;;;-2.40;99.90;;;;;;4146602;28;20133;-62
2022/12/17 20:11:49;;;;;;;67.25;30.10;;;-2.50;99.90;;;;;;4145025;28;20133;-63
2022/12/17 20:13:54;;;;;;;78.25;33.22;;;-2.50;99.90;;;;;;4145137;28;20504;-63
2022/12/17 20:16:03;;;;;;;75.93;33.75;;;-2.60;99.90;;;;;;4145935;28;20436;-62
2022/12/17 20:18:04;;;;;;;63.58;31.38;;;-2.70;99.90;;;;;;4133319;28;20061;-63
2022/12/17 20:20:05;;;;;;;61.30;29.38;;;-2.80;99.90;;;;;;4146479;28;20037;-63
2022/12/17 20:22:06;;;;;;;64.30;31.33;;;-2.80;99.90;;;;;;4146047;28;20084;-63
2022/12/17 20:24:07;;;;;;;64.03;29.50;;;-2.80;99.90;;;;;;4146535;28;20034;-63
2022/12/17 20:26:10;;;;;;;63.05;28.27;;;-2.90;99.90;;;;;;4144395;28;20057;-63
2022/12/17 20:28:10;;;;;;;63.45;28.58;;;-2.80;99.90;;;;;;4144893;28;20038;-63
2022/12/17 20:30:11;;;;;;;61.28;28.83;;;-2.80;99.90;;;;;;4146490;28;20084;-63
2022/12/17 20:32:12;;;;;;;61.88;28.90;;;-2.80;99.90;;;;;;4145999;28;20509;-63
2022/12/17 20:34:14;;;;;;;64.45;30.55;;;-2.80;99.90;;;;;;4146353;28;20045;-62
2022/12/17 20:36:17;;;;;;;61.10;29.55;;;-2.80;99.90;;;;;;4144114;28;20052;-63
2022/12/17 20:38:19;;;;;;;62.58;29.08;;;-2.80;99.90;;;;;;4152772;28;20058;-63
2022/12/17 20:40:19;;;;;;;69.93;30.27;;;-2.80;99.90;;;;;;4142153;28;20084;-63
2022/12/17 20:42:20;;;;;;;68.93;30.13;;;-2.80;99.90;;;;;;4141591;28;20030;-63
2022/12/17 20:44:20;;;;;;;61.95;29.25;;;-2.80;99.90;;;;;;4146168;28;20042;-62
2022/12/17 20:46:23;;;;;;;61.60;28.33;;;-2.80;99.90;;;;;;4144803;28;20092;-63
2022/12/17 20:48:24;;;;;;;63.33;28.02;;;-2.80;99.90;;;;;;4144242;28;20084;-63
2022/12/17 20:50:24;;;;;;;64.85;29.55;;;-2.80;99.90;;;;;;4144500;28;20076;-63
2022/12/17 20:52:25;;;;;;;64.45;30.67;;;-2.80;99.90;;;;;;4145476;28;20477;-63
2022/12/17 20:54:25;;;;;;;72.88;32.90;;;-2.70;99.90;;;;;;4144788;28;20119;-63
2022/12/17 20:56:31;;;;;;;75.70;33.10;;;-2.70;99.90;;;;;;4140626;28;20045;-63
2022/12/17 20:58:32;;;;;;;64.50;29.10;;;-2.80;99.90;;;;;;4144936;28;20377;-62
2022/12/17 21:00:33;;;;;;;61.58;28.35;;;-2.80;99.90;;;;;;4143797;28;20030;-64
2022/12/17 21:02:35;;;;;;;65.38;27.50;;;-2.80;99.90;;;;;;4144561;28;20062;-63
2022/12/17 21:04:35;;;;;;;56.35;26.85;;;-2.80;99.90;;;;;;4145353;28;20469;-62
2022/12/17 21:06:38;;;;;;;54.63;25.50;;;-2.80;99.90;;;;;;4143853;28;20066;-63
2022/12/17 21:08:41;;;;;;;48.90;22.58;;;-2.80;99.90;;;;;;4143032;28;20061;-63
2022/12/17 21:10:41;;;;;;;53.45;23.73;;;-2.80;99.90;;;;;;4142630;28;20042;-63
2022/12/17 21:15:03;;;;;;;47.10;20.75;;;-2.80;99.90;;;;;;4144309;28;20096;-62
2022/12/17 21:17:04;;;;;;;49.90;21.52;;;-2.60;99.90;;;;;;4142015;28;20431;-63
2022/12/17 21:19:06;;;;;;;41.13;19.45;;;-2.70;99.90;;;;;;4144529;28;20092;-62
2022/12/17 21:21:11;;;;;;;42.45;19.88;;;-2.60;99.90;;;;;;4144448;28;20507;-63
2022/12/17 21:23:11;;;;;;;43.42;20.13;;;-2.60;99.90;;;;;;4145180;28;20032;-63
2022/12/17 21:25:12;;;;;;;43.97;19.70;;;-2.60;99.90;;;;;;4139880;28;20347;-63
2022/12/17 21:27:12;;;;;;;45.70;19.98;;;-2.50;99.90;;;;;;4143682;28;20397;-63
2022/12/17 21:29:14;;;;;;;39.58;19.02;;;-2.50;99.90;;;;;;4145136;28;20427;-63
2022/12/17 21:31:14;;;;;;;40.05;18.73;;;-2.50;99.90;;;;;;4143987;28;20076;-63
2022/12/17 21:33:15;;;;;;;41.58;18.38;;;-2.50;99.90;;;;;;4144972;28;20460;-62
2022/12/17 21:35:16;;;;;;;38.55;17.85;;;-2.50;99.90;;;;;;4142880;28;20062;-62
2022/12/17 21:37:17;;;;;;;42.40;18.98;;;-2.50;99.90;;;;;;4144601;28;20057;-62
2022/12/17 21:39:18;;;;;;;33.65;15.82;;;-2.50;99.90;;;;;;4143017;28;20038;-62
2022/12/17 21:41:24;;;;;;;39.38;16.52;;;-2.40;99.90;;;;;;4144324;28;20042;-62
2022/12/17 21:43:25;;;;;;;34.05;16.25;;;-2.40;99.90;;;;;;4145389;28;20072;-62
2022/12/17 21:45:25;;;;;;;33.08;15.98;;;-2.40;99.90;;;;;;4144129;28;20030;-63
2022/12/17 21:47:26;;;;;;;35.08;15.85;;;-2.40;99.90;;;;;;4143884;28;20044;-63
2022/12/17 21:49:27;;;;;;;35.17;15.23;;;-2.40;99.90;;;;;;4143709;28;22481;-63
2022/12/17 21:51:28;;;;;;;30.60;15.07;;;-2.40;99.90;;;;;;4144484;28;20034;-63
2022/12/17 21:53:29;;;;;;;30.20;15.20;;;-2.30;99.90;;;;;;4144762;28;20034;-62
2022/12/17 21:55:29;;;;;;;32.78;15.50;;;-2.30;99.90;;;;;;4143817;28;20077;-63
2022/12/17 21:57:30;;;;;;;30.98;13.57;;;-2.30;99.90;;;;;;4143777;28;20530;-62
2022/12/17 21:59:31;;;;;;;33.17;15.43;;;-2.30;99.90;;;;;;4145358;28;20030;-62
2022/12/17 22:01:32;;;;;;;31.38;14.70;;;-2.30;99.90;;;;;;4144383;28;20033;-62
2022/12/17 22:03:33;;;;;;;35.72;16.80;;;-2.30;99.90;;;;;;4144526;28;20033;-62
2022/12/17 22:05:37;;;;;;;33.45;14.38;;;-2.30;99.90;;;;;;4143440;28;20041;-62
2022/12/17 22:07:37;;;;;;;32.30;14.43;;;-2.30;99.90;;;;;;4145576;28;20030;-62
2022/12/17 22:09:38;;;;;;;32.50;14.98;;;-2.30;99.90;;;;;;4144762;28;20062;-63
2022/12/17 22:11:38;;;;;;;27.92;13.95;;;-2.20;99.90;;;;;;4142925;28;20057;-63
2022/12/17 22:16:05;;;;;;;33.05;15.73;;;-2.20;99.90;;;;;;4142458;28;20129;-62
2022/12/17 22:18:05;;;;;;;31.83;15.52;;;-2.10;99.90;;;;;;4145565;28;20401;-63
2022/12/17 22:20:07;;;;;;;28.80;14.75;;;-2.10;99.90;;;;;;4143723;28;20033;-63
2022/12/17 22:22:07;;;;;;;32.05;15.98;;;-2.10;99.90;;;;;;4143835;28;20034;-63
2022/12/17 22:24:17;;;;;;;32.88;14.50;;;-2.10;99.90;;;;;;4144309;28;20054;-63
2022/12/17 22:26:18;;;;;;;29.90;14.35;;;-2.00;99.90;;;;;;4141947;28;20536;-62
2022/12/17 22:28:19;;;;;;;31.13;14.02;;;-2.00;99.90;;;;;;4143687;28;20057;-62
2022/12/17 22:34:58;;;;;;;32.50;14.18;;;-2.00;99.90;;;;;;4143000;28;20062;-63
2022/12/17 22:36:59;;;;;;;28.40;13.23;;;-2.00;99.90;;;;;;4141244;28;20596;-63
2022/12/17 22:39:00;;;;;;;28.77;13.73;;;-2.00;99.90;;;;;;4145661;28;20145;-63
2022/12/17 22:41:04;;;;;;;27.15;13.77;;;-2.00;99.90;;;;;;4143761;28;20026;-63
2022/12/17 22:45:24;;;;;;;28.70;14.00;;;-1.90;99.90;;;;;;4145096;28;20034;-63
2022/12/17 22:47:24;;;;;;;27.92;12.77;;;-1.90;99.90;;;;;;4130833;28;20136;-63
2022/12/17 22:49:25;;;;;;;32.65;13.95;;;-2.00;99.90;;;;;;4160007;28;20037;-63
2022/12/17 22:51:25;;;;;;;27.52;13.38;;;-2.00;99.90;;;;;;4142954;28;20141;-64
2022/12/17 22:53:26;;;;;;;27.45;13.02;;;-1.90;99.90;;;;;;4144355;28;20117;-64
2022/12/17 22:55:27;;;;;;;26.63;12.90;;;-1.90;99.90;;;;;;4143390;28;20056;-63
2022/12/17 22:57:27;;;;;;;26.23;13.40;;;-1.90;99.90;;;;;;4145969;28;20428;-63
2022/12/17 22:59:28;;;;;;;27.42;12.18;;;-1.90;99.90;;;;;;4161488;28;20103;-64
2022/12/17 23:01:29;;;;;;;24.35;12.52;;;-1.90;99.90;;;;;;4140486;28;20046;-63
2022/12/17 23:03:30;;;;;;;26.40;12.98;;;-1.90;99.90;;;;;;4144953;28;20493;-64
2022/12/17 23:05:31;;;;;;;26.90;12.65;;;-1.90;99.90;;;;;;4143616;28;20045;-63
2022/12/17 23:07:31;;;;;;;25.02;12.73;;;-1.90;99.90;;;;;;4145974;28;20694;-63
2022/12/17 23:09:32;;;;;;;26.38;12.50;;;-1.90;99.90;;;;;;4148317;28;20026;-63
2022/12/17 23:11:33;;;;;;;26.95;12.57;;;-1.90;99.90;;;;;;4143946;28;20091;-63
2022/12/17 23:13:34;;;;;;;27.25;12.55;;;-1.80;99.90;;;;;;4144029;28;20168;-64
2022/12/17 23:15:35;;;;;;;25.55;11.90;;;-1.90;99.90;;;;;;4141587;28;20044;-63
2022/12/17 23:17:36;;;;;;;24.75;12.02;;;-1.90;99.90;;;;;;4146139;28;20092;-64
2022/12/17 23:19:37;;;;;;;23.05;11.60;;;-1.90;99.90;;;;;;4161183;28;20033;-63
2022/12/17 23:21:37;;;;;;;27.45;12.07;;;-1.80;99.90;;;;;;4157440;28;20148;-64
2022/12/17 23:23:38;;;;;;;22.52;11.20;;;-1.80;99.90;;;;;;4147065;28;20033;-64
2022/12/17 23:25:39;;;;;;;22.85;11.27;;;-1.80;99.90;;;;;;4146218;28;20037;-64
2022/12/17 23:27:39;;;;;;;24.35;11.65;;;-1.80;99.90;;;;;;4144871;28;20029;-65
2022/12/17 23:29:40;;;;;;;20.90;10.32;;;-1.80;99.90;;;;;;4131773;28;20026;-64
2022/12/17 23:31:40;;;;;;;22.33;10.55;;;-1.80;99.90;;;;;;4141773;28;20034;-63
2022/12/17 23:33:41;;;;;;;23.40;11.65;;;-1.80;99.90;;;;;;4147845;28;20109;-64
2022/12/17 23:35:41;;;;;;;21.20;10.43;;;-1.80;99.90;;;;;;4145330;28;20038;-64
2022/12/17 23:37:42;;;;;;;21.52;11.15;;;-1.80;99.90;;;;;;4149246;28;20033;-64
2022/12/17 23:39:43;;;;;;;20.23;10.63;;;-1.80;99.90;;;;;;4164312;28;20065;-64
2022/12/17 23:41:43;;;;;;;22.33;11.00;;;-1.80;99.90;;;;;;4151443;28;20040;-64
2022/12/17 23:43:45;;;;;;;24.88;11.80;;;-1.80;99.90;;;;;;4147904;28;20488;-64
2022/12/17 23:45:45;;;;;;;23.77;10.52;;;-1.80;99.90;;;;;;4145908;28;20034;-64
2022/12/17 23:47:46;;;;;;;22.45;11.10;;;-1.90;99.90;;;;;;4146820;28;20507;-64